This is the latest recevied weather packets stored in our database for station/object HK4RAU-31. If no packets are shown the sender has not sent any weather packets the latest 10 day(s).
| Time | Temp. | Humidity | Pressure | Rain* | Wind** | Luminosity | Snow |
|---|---|---|---|---|---|---|---|
| 1778246439 | 13.89° C | 85% | 1018 hPa | 0 mm | - | - | - |
| 1778246252 | 13.89° C | 85% | 1018 hPa | 0 mm | - | - | - |
| 1778246071 | 13.89° C | 85% | 1018 hPa | 0 mm | - | - | - |
| 1778245884 | 13.89° C | 85% | 1018 hPa | 0 mm | - | - | - |
| 1778245698 | 14.44° C | 87% | 1018 hPa | 0 mm | - | - | - |
| 1778245512 | 14.44° C | 87% | 1018 hPa | 0 mm | - | - | - |
| 1778245329 | 14.44° C | 87% | 1018 hPa | 0 mm | - | - | - |
| 1778245146 | 14.44° C | 87% | 1018 hPa | 0 mm | - | - | - |
| 1778244960 | 14.44° C | 88% | 1018 hPa | 0 mm | - | - | - |
| 1778244779 | 13.33° C | 90% | 1018 hPa | 0 mm | - | - | - |
| 1778244592 | 10° C | 97% | 1018 hPa | 0 mm | - | - | - |
| 1778244405 | 13.33° C | 94% | 1018 hPa | 0 mm | - | - | - |
| 1778244223 | 10° C | 97% | 1018 hPa | 0 mm | - | - | - |
| 1778244042 | 10° C | 97% | 1018 hPa | 0 mm | - | - | - |
| 1778243855 | 10° C | 97% | 1018 hPa | 0 mm | - | - | - |
| 1778243669 | 10° C | 97% | 1018 hPa | 0 mm | - | - | - |
| 1778243472 | 9.44° C | 97% | 1018 hPa | 0 mm | - | - | - |
| 1778243281 | 9.44° C | 97% | 1018 hPa | 0 mm | - | - | - |
| 1778243099 | 9.44° C | 97% | 1018 hPa | 0 mm | - | - | - |
| 1778242918 | 9.44° C | 97% | 1018 hPa | 0 mm | - | - | - |
| 1778242732 | 9.44° C | 97% | 1018 hPa | 0 mm | - | - | - |
| 1778242550 | 9.44° C | 97% | 1018 hPa | 0 mm | - | - | - |
| 1778242362 | 10° C | 97% | 1018 hPa | 0 mm | - | - | - |
| 1778242171 | 10° C | 97% | 1018 hPa | 0 mm | - | - | - |
| 1778241984 | 9.44° C | 97% | 1018 hPa | 0 mm | - | - | - |
* Rain latest hour (hover to see other rain measurements)
** Current wind speed in m/s (hover to see current wind gust speed)